TAPATFFF

Guest
Details From TAPA - Antigua - V C Bird Intl
To TFFF - Martinique/Aime Cesaire Intl
Flight Number -
Tags generated
Created
Modified
Stats Distance 160 nm / 295 km
Max Altitude 11,000 ft / 3,353 m
Waypoints 3
Social Downloads 12
Likes 0
Share VATSIM

Download

Looking for another format? Having issues loading an existing format? Contact us
Advertisement - Login to hide

Notes

Basic altitude profile: - Ascent Rate: 2100ft/min - Ascent Speed: 250kts - Cruise Altitude: 12000ft - Cruise Speed: 320kts - Descent Rate: 1800ft/min - Descent Speed: 250kts

Route

TAPA DOM TFFF

ID Type Via Altitude Latitude Longitude Leg Dist Tot Dist Heading (true) Name
O TAPA APT - 0 ft / 0 m 17.13674˚ -61.79266˚ - 0 nm - Antigua - V C Bird Intl
DOM NDB - 11,000 ft / 3,353 m 15.55094˚ -61.29564˚ 99 nm 99 nm 163° / 163° MELVILLE HALL NDB
O TFFF APT - 0 ft / 0 m 14.59103˚ -61.00317˚ 60 nm 159 nm 164° / 164° Martinique/Aime Cesaire Intl

Altitude Profile

Advertisement - Login to hide

TAPA

Details ICAO TAPA (ANU)
Name Antigua - V C Bird Intl
Region Antigua and Barbuda
Timezone America/Antigua (UTC-4.0)
Stats Elevation 62 ft / 19 m (AMSL)
Location 17.136737° -61.792662°
Runways 1
Magnetic Variation 14.777° W

METAR

TAPA 261600Z 10012KT 9999 SCT020 29/23 Q1016 NOSIG

Decode

TAF

TAF TAPA 260527Z 2606/2706 09012KT 9999 SCT022 PROB40 TEMPO 2620/2706 SHRA

Decode

Departure Runways

ID Width Length Bearing (true) Bearing (mag) Surface Threshold Offset Overrun Length
07 148 ft / 45 m 9,022 ft / 2,750 m 58.28° 73.06° Asphalt 656 ft / 200 m 0 ft / 0 m
25 148 ft / 45 m 9,022 ft / 2,750 m 238.29° 253.07° Asphalt 0 ft / 0 m 0 ft / 0 m

TFFF

Details ICAO TFFF (FDF)
Name Martinique/Aime Cesaire Intl
Region France (Guadeloupe, Martinique, Saint Barthélemy, Saint Martin)
Timezone America/Martinique (UTC-4.0)
Stats Elevation 16 ft / 5 m (AMSL)
Location 14.591032° -61.003173°
Runways 1
Magnetic Variation 15.072° W

METAR

TFFF 261600Z AUTO 12013KT 090V150 9999 FEW013 BKN025 BKN030 29/25 Q1015 TEMPO VRB15G30KT 1400 TSRA SCT010CB BKN013

Decode

TAF

TAF TFFF 261000Z 2612/2712 09012KT 9999 FEW013 SCT020 BKN040 TEMPO 2612/2709 VRB15G25KT 3000 SHRA FEW013CB BKN015 PROB30 TEMPO 2612/2620 VRB15G30KT 1400 TSRA SCT010CB BKN013

Decode

Destination Runways

ID Width Length Bearing (true) Bearing (mag) Surface Threshold Offset Overrun Length
09 148 ft / 45 m 9,852 ft / 3,003 m 79.93° 95.00° Asphalt 0 ft / 0 m 0 ft / 0 m
27 148 ft / 45 m 9,852 ft / 3,003 m 259.94° 275.01° Asphalt 820 ft / 250 m 948 ft / 289 m

Approach Navaids

Runway Type Ident Frequency Range Bearing (true) Bearing (mag) Slope Elevation
09 Localiser FF 109.90 MHz 18 nm / 33 km 79.90° 94.98° - 16 ft / 5 m (AMSL)
09 Glidescope FF 109.90 MHz 10 nm / 19 km 79.93° 95.00° 3.00° 16 ft / 5 m (AMSL)

Popular Alternatives